Terminal Aerodrome Forecast
Issued by NWS

Home | Current Version | Previous Version | Text Only | Print | Product List | Glossary On
Versions: 1 2 3 4 5 6 7 8 9 10 11 12 13 14 15 16 17 18 19
000
FTAK31 PANC 251138
TAFACD
TAF
PACD 251138Z 2512/2612 30012KT P6SM SCT025 OVC035
     FM251500 14008KT P6SM BKN025 OVC040
     FM252100 14015G25KT 5SM -RA BR BKN015 OVC025
     FM260100 14022G35KT 4SM -RA BR SCT008 OVC015
     FM260600 14028G40KT 4SM -RA BR BKN008 OVC015
     FM261100 15025G35KT 6SM -RA BKN015 OVC025=

USA.gov is the U.S. government's official web portal to all federal, state and local government web resources and services.